Terminal Aerodrome Forecast
Issued by NWS Upton, NY

Home | Current Version | Previous Version | Text Only | Print | Product List | Glossary On
Versions: 1 2 3 4 5 6 7 8 9 10 11 12 13 14 15 16 17 18 19 20 21 22 23 24 25 26 27 28 29
133
FTUS41 KOKX 261934 AAA
TAFBDR
TAF AMD
KBDR 261934Z 2620/2718 16006KT P6SM FEW020 BKN250
     FM270000 13005KT P6SM SCT007 BKN250
     FM270200 06005KT 6SM BR BKN007
     FM270500 06004KT 4SM BR BKN005
      TEMPO 2708/2712 1SM BR BKN003
     FM271400 06007KT P6SM SCT005 SCT100=

USA.gov is the U.S. government's official web portal to all federal, state and local government web resources and services.